Time;durP1;ratioP1;P1;durP2;ratioP2;P2;SDS_P1;SDS_P2;PMS_P1;PMS_P2;Temp;Humidity;BMP_temperature;BMP_pressure;BME280_temperature;BME280_humidity;BME280_pressure;Samples;Min_cycle;Max_cycle;Signal;HPM_P1;HPM_P2
2021/12/28 00:01:04;;;;;;;62.20;29.40;;;;;;;3.56;100.00;97148.75;5109070;28;20426;-75
2021/12/28 00:03:30;;;;;;;70.75;31.08;;;;;;;3.49;100.00;97151.72;5106418;28;20024;-74
2021/12/28 00:05:56;;;;;;;65.78;29.23;;;;;;;3.53;100.00;97147.41;5108999;28;20051;-75
2021/12/28 00:08:22;;;;;;;61.55;29.10;;;;;;;3.54;100.00;97151.72;5101645;28;20032;-74
2021/12/28 00:10:48;;;;;;;68.07;30.85;;;;;;;3.52;100.00;97144.94;5091868;28;20024;-74
2021/12/28 00:13:15;;;;;;;67.45;30.10;;;;;;;3.47;100.00;97145.78;5092147;28;20107;-73
2021/12/28 00:15:50;;;;;;;65.40;30.08;;;;;;;3.45;100.00;97149.81;5091619;28;20028;-74
2021/12/28 00:18:19;;;;;;;62.80;28.43;;;;;;;3.50;100.00;97144.44;5096744;28;20027;-74
2021/12/28 00:20:48;;;;;;;59.08;27.25;;;;;;;3.49;100.00;97140.09;5106207;28;20024;-74
2021/12/28 00:23:18;;;;;;;57.47;26.88;;;;;;;3.46;100.00;97140.63;5108093;28;20030;-74
2021/12/28 00:25:49;;;;;;;53.65;27.80;;;;;;;3.49;100.00;97129.28;5107435;28;20027;-76
2021/12/28 00:28:15;;;;;;;55.63;26.63;;;;;;;3.50;100.00;97136.31;5099700;28;20030;-74
2021/12/28 00:30:41;;;;;;;59.95;28.52;;;;;;;3.40;100.00;97130.91;5097998;28;20030;-74
2021/12/28 00:33:07;;;;;;;62.05;28.15;;;;;;;3.42;100.00;97134.13;5110188;28;20040;-74
2021/12/28 00:35:35;;;;;;;61.20;29.35;;;;;;;3.46;100.00;97141.44;5111480;28;20499;-74
2021/12/28 00:38:04;;;;;;;63.22;28.25;;;;;;;3.34;100.00;97132.78;5092923;28;20028;-74
2021/12/28 00:40:32;;;;;;;64.82;29.55;;;;;;;3.23;100.00;97123.84;5091007;28;20033;-74
2021/12/28 00:42:57;;;;;;;63.90;29.13;;;;;;;3.37;100.00;97132.25;5091355;28;20050;-74
2021/12/28 00:45:23;;;;;;;69.93;30.13;;;;;;;3.33;100.00;97133.06;5089802;28;20069;-73
2021/12/28 00:47:49;;;;;;;66.22;29.10;;;;;;;3.35;100.00;97128.22;5091100;28;20024;-74
2021/12/28 00:50:16;;;;;;;68.35;29.45;;;;;;;3.38;100.00;97128.47;5094041;28;20036;-74
2021/12/28 00:52:42;;;;;;;63.08;29.25;;;;;;;3.37;100.00;97131.44;5112775;28;20047;-74
2021/12/28 00:55:10;;;;;;;64.85;28.35;;;;;;;3.36;100.00;97130.63;5112033;28;20055;-74
2021/12/28 00:57:35;;;;;;;64.07;29.08;;;;;;;3.35;100.00;97117.41;5111327;28;20106;-74
2021/12/28 01:00:05;;;;;;;66.07;28.48;;;;;;;3.22;100.00;97130.38;5111357;28;20055;-74
2021/12/28 01:02:30;;;;;;;60.80;28.65;;;;;;;3.14;100.00;97138.97;5113459;28;20038;-75
2021/12/28 01:04:55;;;;;;;69.00;28.50;;;;;;;3.11;100.00;97141.41;5115794;28;20023;-77
2021/12/28 01:07:21;;;;;;;65.80;29.65;;;;;;;3.08;100.00;97145.47;5112585;28;20020;-75
2021/12/28 01:09:47;;;;;;;65.15;27.75;;;;;;;3.05;100.00;97127.09;5111091;28;20027;-75
2021/12/28 01:12:12;;;;;;;67.47;29.75;;;;;;;3.05;100.00;97134.38;5111885;28;20024;-76
2021/12/28 01:14:38;;;;;;;62.72;29.75;;;;;;;3.03;100.00;97118.44;5111074;28;20031;-76
2021/12/28 01:17:05;;;;;;;61.95;27.45;;;;;;;3.17;100.00;97122.22;5111104;28;20036;-75
2021/12/28 01:19:30;;;;;;;64.72;28.38;;;;;;;3.29;100.00;97135.47;5110977;28;20044;-75
2021/12/28 01:21:56;;;;;;;61.53;26.15;;;;;;;3.30;100.00;97126.31;5110938;28;20057;-75
2021/12/28 01:24:24;;;;;;;64.15;28.98;;;;;;;3.26;100.00;97121.72;5111201;28;20024;-79
2021/12/28 01:26:50;;;;;;;63.83;28.63;;;;;;;3.20;100.00;97116.28;5110875;28;20027;-73
2021/12/28 01:29:15;;;;;;;63.50;28.67;;;;;;;3.28;100.00;97130.34;5112180;28;20096;-74
2021/12/28 01:31:41;;;;;;;63.60;27.63;;;;;;;3.28;100.00;97130.34;5113382;28;20036;-74
2021/12/28 01:34:09;;;;;;;59.72;27.70;;;;;;;3.34;100.00;97130.09;5112327;28;20027;-77
2021/12/28 01:36:35;;;;;;;57.75;27.48;;;;;;;3.35;100.00;97122.81;5113917;28;20142;-74
2021/12/28 01:39:03;;;;;;;61.97;28.50;;;;;;;3.33;100.00;97130.34;5114411;28;20134;-74
2021/12/28 01:41:29;;;;;;;61.00;28.70;;;;;;;3.34;100.00;97127.38;5114213;28;20032;-75
2021/12/28 01:44:02;;;;;;;62.88;29.15;;;;;;;3.24;100.00;97125.50;5114697;28;20023;-75
2021/12/28 01:46:28;;;;;;;56.55;27.02;;;;;;;3.21;100.00;97117.94;5114437;28;20032;-74
2021/12/28 01:48:53;;;;;;;58.78;28.67;;;;;;;3.21;100.00;97117.94;5115883;28;20031;-74
2021/12/28 01:51:22;;;;;;;62.30;28.52;;;;;;;3.22;100.00;97126.84;5113349;28;20243;-75
2021/12/28 01:53:49;;;;;;;64.57;29.23;;;;;;;3.23;100.00;97129.25;5114812;28;20130;-75
2021/12/28 01:56:21;;;;;;;57.15;26.48;;;;;;;3.28;100.00;97119.56;5114321;28;20108;-75
2021/12/28 01:58:48;;;;;;;56.58;26.85;;;;;;;3.24;100.00;97114.69;5114412;28;20028;-75
2021/12/28 02:01:14;;;;;;;51.28;25.73;;;;;;;3.31;100.00;97113.59;5112798;28;20384;-75
2021/12/28 02:03:41;;;;;;;54.28;25.77;;;;;;;3.29;100.00;97107.66;5114213;28;20027;-74
2021/12/28 02:06:07;;;;;;;55.80;25.73;;;;;;;3.29;100.00;97096.84;5114160;28;20028;-75
2021/12/28 02:08:34;;;;;;;60.80;27.90;;;;;;;3.30;100.00;97101.16;5114206;27;20027;-74
2021/12/28 02:11:00;;;;;;;54.78;25.98;;;;;;;3.31;100.00;97100.91;5117331;28;20026;-74
2021/12/28 02:13:26;;;;;;;56.38;26.42;;;;;;;3.31;100.00;97100.09;5116814;28;20402;-74
2021/12/28 02:15:52;;;;;;;59.72;26.85;;;;;;;3.40;100.00;97099.28;5114744;28;20088;-74
2021/12/28 02:18:21;;;;;;;61.72;26.42;;;;;;;3.30;100.00;97087.66;5114222;28;20546;-75
2021/12/28 02:20:47;;;;;;;58.30;26.05;;;;;;;3.40;100.00;97098.47;5113891;28;20034;-74
2021/12/28 02:23:13;;;;;;;59.08;25.45;;;;;;;3.41;100.00;97097.41;5113767;28;20062;-76
2021/12/28 02:25:39;;;;;;;52.58;26.08;;;;;;;3.34;100.00;97094.16;5113449;28;20059;-75
2021/12/28 02:28:09;;;;;;;57.40;27.13;;;;;;;3.29;100.00;97086.84;5113798;28;20546;-75
2021/12/28 02:30:38;;;;;;;54.00;26.70;;;;;;;3.23;100.00;97096.84;5115583;28;20090;-74
2021/12/28 02:33:05;;;;;;;56.35;25.52;;;;;;;3.23;100.00;97083.34;5113719;28;20024;-74
2021/12/28 02:35:31;;;;;;;61.80;27.90;;;;;;;3.28;100.00;97081.72;5113663;28;20020;-74
2021/12/28 02:37:57;;;;;;;56.78;26.50;;;;;;;3.35;100.00;97080.38;5113411;28;20024;-74
2021/12/28 02:40:27;;;;;;;61.10;28.15;;;;;;;3.33;100.00;97076.31;5113106;28;20023;-74
2021/12/28 02:42:54;;;;;;;59.03;26.80;;;;;;;3.29;100.00;97076.03;5114226;28;20155;-76
2021/12/28 02:45:31;;;;;;;60.38;27.95;;;;;;;3.33;100.00;97076.31;5113659;28;20032;-74
2021/12/28 02:47:57;;;;;;;59.38;27.77;;;;;;;3.37;100.00;97070.09;5113581;27;20114;-74
2021/12/28 02:50:27;;;;;;;61.72;28.38;;;;;;;3.29;100.00;97076.03;5113025;28;20440;-74
2021/12/28 02:52:53;;;;;;;54.92;26.42;;;;;;;3.29;100.00;97073.31;5112819;28;20027;-75
2021/12/28 02:55:22;;;;;;;61.58;30.45;;;;;;;3.30;100.00;97066.84;5113339;28;20050;-77
2021/12/28 02:57:50;;;;;;;55.80;27.45;;;;;;;3.31;100.00;97068.47;5112497;28;20639;-75
2021/12/28 03:00:34;;;;;;;55.10;26.35;;;;;;;3.40;100.00;97069.56;5098544;28;20028;-75
2021/12/28 03:03:05;;;;;;;55.65;27.95;;;;;;;3.40;100.00;97058.75;5092133;28;20032;-76
2021/12/28 03:05:32;;;;;;;56.33;26.75;;;;;;;3.38;100.00;97057.41;5091323;28;20044;-74
2021/12/28 03:07:57;;;;;;;62.35;29.30;;;;;;;3.38;100.00;97044.72;5092340;28;20542;-75
2021/12/28 03:10:23;;;;;;;54.20;26.17;;;;;;;3.44;100.00;97048.22;5094980;28;20491;-79
2021/12/28 03:12:48;;;;;;;61.75;28.27;;;;;;;3.44;100.00;97045.50;5094077;28;20123;-75
2021/12/28 03:15:14;;;;;;;59.80;28.73;;;;;;;3.46;100.00;97043.31;5078136;28;20026;-76
2021/12/28 03:17:40;;;;;;;60.08;28.85;;;;;;;3.53;100.00;97049.28;5113041;28;20467;-80
2021/12/28 03:20:07;;;;;;;50.38;26.85;;;;;;;3.54;100.00;97035.47;5112255;28;20020;-74
2021/12/28 03:22:36;;;;;;;51.45;26.85;;;;;;;3.57;100.00;97039.53;5111795;28;20033;-75
2021/12/28 03:25:03;;;;;;;62.55;27.15;;;;;;;3.48;100.00;97043.84;5110693;28;20032;-75
2021/12/28 03:27:28;;;;;;;58.70;28.30;;;;;;;3.55;100.00;97044.41;5111958;28;20030;-75
2021/12/28 03:29:54;;;;;;;58.20;27.17;;;;;;;3.61;100.00;97051.41;5112203;28;20032;-74
2021/12/28 03:32:19;;;;;;;63.13;27.92;;;;;;;3.61;100.00;97046.00;5111952;28;20028;-75
2021/12/28 03:34:44;;;;;;;57.53;28.42;;;;;;;3.64;100.00;97050.88;5111960;28;20015;-75
2021/12/28 03:37:10;;;;;;;62.15;28.15;;;;;;;3.53;100.00;97051.97;5111813;28;20050;-75
2021/12/28 03:39:35;;;;;;;56.83;28.88;;;;;;;3.62;100.00;97044.94;5111753;28;20704;-75
2021/12/28 03:42:02;;;;;;;60.17;27.45;;;;;;;3.60;100.00;97049.81;5110019;28;20480;-75
2021/12/28 03:44:27;;;;;;;55.33;26.98;;;;;;;3.64;100.00;97042.75;5112614;28;20024;-75
2021/12/28 03:46:53;;;;;;;59.17;26.67;;;;;;;3.67;100.00;97050.31;5111779;28;20031;-75
2021/12/28 03:49:18;;;;;;;56.78;27.63;;;;;;;3.73;100.00;97054.63;5111891;28;20024;-76
2021/12/28 03:51:43;;;;;;;57.50;27.65;;;;;;;3.66;100.00;97059.53;5108048;28;20032;-76
2021/12/28 03:54:09;;;;;;;63.97;29.35;;;;;;;3.56;100.00;97054.94;5091165;28;20040;-75
2021/12/28 03:56:34;;;;;;;56.15;27.77;;;;;;;3.65;100.00;97058.72;5091514;28;20035;-77
2021/12/28 03:59:00;;;;;;;53.33;27.50;;;;;;;3.60;100.00;97055.22;5091452;28;20081;-76
2021/12/28 04:01:26;;;;;;;54.90;28.27;;;;;;;3.61;100.00;97056.81;5091097;28;20036;-77
2021/12/28 04:03:51;;;;;;;63.90;27.63;;;;;;;3.58;100.00;97057.38;5091454;28;20105;-76
2021/12/28 04:06:19;;;;;;;58.22;28.08;;;;;;;3.50;100.00;97050.63;5091789;28;20024;-75
2021/12/28 04:08:46;;;;;;;56.83;28.27;;;;;;;3.54;100.00;97050.91;5089925;28;20036;-75
2021/12/28 04:13:48;;;;;;;60.20;29.67;;;;;;;3.55;100.00;97050.63;5091957;28;20035;-76
2021/12/28 04:16:15;;;;;;;61.42;28.30;;;;;;;3.58;100.00;97060.06;5095244;28;20288;-75
2021/12/28 04:18:41;;;;;;;65.75;30.77;;;;;;;3.49;100.00;97057.13;5096788;28;20484;-79
2021/12/28 04:21:08;;;;;;;60.58;29.98;;;;;;;3.52;100.00;97047.66;5091627;28;20110;-75
2021/12/28 04:23:34;;;;;;;62.58;30.00;;;;;;;3.33;100.00;97050.09;5089828;28;20456;-75
2021/12/28 04:26:01;;;;;;;63.35;30.08;;;;;;;3.31;100.00;97051.47;5090960;28;20020;-75
2021/12/28 04:28:26;;;;;;;61.30;28.95;;;;;;;3.34;100.00;97050.91;5090800;28;20020;-75
2021/12/28 04:30:52;;;;;;;65.15;31.10;;;;;;;3.30;100.00;97053.34;5090483;28;20074;-76
2021/12/28 04:33:17;;;;;;;60.88;28.25;;;;;;;3.27;100.00;97051.19;5090700;28;20469;-74
2021/12/28 04:35:43;;;;;;;61.22;29.48;;;;;;;3.24;100.00;97049.03;5090420;28;20020;-75
2021/12/28 04:38:08;;;;;;;61.25;29.70;;;;;;;3.28;100.00;97041.19;5090647;28;20547;-74
2021/12/28 04:40:34;;;;;;;61.92;29.52;;;;;;;3.34;100.00;97045.50;5090747;28;20040;-74
2021/12/28 04:42:59;;;;;;;63.08;29.23;;;;;;;3.35;100.00;97037.16;5091320;28;20089;-75
2021/12/28 04:45:25;;;;;;;56.58;27.60;;;;;;;3.50;100.00;97050.63;5097491;28;20032;-75
2021/12/28 04:47:50;;;;;;;64.60;30.55;;;;;;;3.44;100.00;97046.31;5091332;28;20016;-75
2021/12/28 04:50:16;;;;;;;60.70;27.02;;;;;;;3.35;100.00;97039.84;5090618;28;20024;-75
2021/12/28 04:52:42;;;;;;;57.67;27.23;;;;;;;3.28;100.00;97050.09;5101854;28;20016;-75
2021/12/28 04:55:12;;;;;;;63.00;29.75;;;;;;;3.30;100.00;97047.94;5110597;28;20044;-75
2021/12/28 04:57:38;;;;;;;59.47;29.17;;;;;;;3.31;100.00;97052.28;5110930;28;20152;-78
2021/12/28 05:00:10;;;;;;;62.47;28.50;;;;;;;3.31;100.00;97067.66;5111648;28;20091;-75
2021/12/28 05:02:36;;;;;;;62.13;29.10;;;;;;;3.31;100.00;97046.88;5110855;28;20084;-75
2021/12/28 05:05:03;;;;;;;55.42;26.77;;;;;;;3.40;100.00;97072.25;5113784;28;20171;-75
2021/12/28 05:07:29;;;;;;;59.08;27.33;;;;;;;3.39;100.00;97059.00;5115250;28;20027;-74
2021/12/28 05:09:57;;;;;;;58.95;27.42;;;;;;;3.37;100.00;97062.00;5114987;28;20020;-74
2021/12/28 05:12:24;;;;;;;52.97;26.85;;;;;;;3.45;100.00;97057.91;5114363;28;20016;-74
2021/12/28 05:14:49;;;;;;;54.80;26.55;;;;;;;3.36;100.00;97051.44;5114845;28;20118;-76
2021/12/28 05:17:15;;;;;;;55.58;25.30;;;;;;;3.39;100.00;97059.00;5114592;27;20027;-74
2021/12/28 05:19:40;;;;;;;52.05;25.02;;;;;;;3.42;100.00;97053.06;5113785;28;20034;-74
2021/12/28 05:22:08;;;;;;;52.80;25.10;;;;;;;3.44;100.00;97053.63;5114344;28;20061;-74
2021/12/28 05:24:35;;;;;;;53.85;25.65;;;;;;;3.39;100.00;97061.69;5113410;28;20043;-75
2021/12/28 05:27:00;;;;;;;56.65;26.95;;;;;;;3.47;100.00;97061.19;5114960;28;20070;-76
2021/12/28 05:29:26;;;;;;;50.42;24.92;;;;;;;3.51;100.00;97056.84;5114529;28;20076;-74
2021/12/28 05:31:51;;;;;;;54.25;25.27;;;;;;;3.49;100.00;97059.81;5114430;28;20031;-74
2021/12/28 05:34:16;;;;;;;55.60;24.70;;;;;;;3.42;100.00;97059.28;5114261;28;20016;-74
2021/12/28 05:36:42;;;;;;;56.53;25.70;;;;;;;3.43;100.00;97060.91;5114332;27;20023;-74
2021/12/28 05:39:07;;;;;;;55.95;27.08;;;;;;;3.44;100.00;97061.72;5107879;28;20123;-74
2021/12/28 05:41:33;;;;;;;50.35;25.77;;;;;;;3.49;100.00;97061.69;5100948;28;20084;-75
2021/12/28 05:43:58;;;;;;;54.55;25.80;;;;;;;3.50;100.00;97055.22;5093037;28;20118;-76
2021/12/28 05:46:24;;;;;;;62.20;28.00;;;;;;;3.50;100.00;97052.53;5112016;28;20016;-76
2021/12/28 05:48:49;;;;;;;50.53;24.08;;;;;;;3.46;100.00;97043.31;5113940;28;20034;-74
2021/12/28 05:51:15;;;;;;;56.08;26.80;;;;;;;3.49;100.00;97046.31;5112838;28;20436;-75
2021/12/28 05:53:41;;;;;;;53.88;26.15;;;;;;;3.57;100.00;97058.47;5113979;28;20090;-74
2021/12/28 05:56:07;;;;;;;47.38;23.42;;;;;;;3.55;100.00;97056.03;5113718;28;20032;-75
2021/12/28 05:58:33;;;;;;;51.53;23.60;;;;;;;3.54;100.00;97053.59;5095712;28;20032;-74
2021/12/28 06:00:58;;;;;;;51.95;25.70;;;;;;;3.47;100.00;97058.47;5094349;28;20070;-76
2021/12/28 06:03:24;;;;;;;49.55;24.48;;;;;;;3.48;100.00;97071.69;5093964;28;20032;-74
2021/12/28 06:05:49;;;;;;;49.75;24.48;;;;;;;3.51;100.00;97059.56;5092116;28;20107;-75
2021/12/28 06:08:15;;;;;;;50.05;24.70;;;;;;;3.46;100.00;97071.16;5093631;28;20031;-74
2021/12/28 06:10:40;;;;;;;56.42;27.48;;;;;;;3.42;100.00;97070.09;5093238;28;20106;-75
2021/12/28 06:13:06;;;;;;;51.03;24.02;;;;;;;3.47;100.00;97077.38;5104285;28;20015;-75
2021/12/28 06:15:32;;;;;;;53.10;25.05;;;;;;;3.45;100.00;97066.03;5113147;28;20107;-74
2021/12/28 06:17:57;;;;;;;49.67;25.35;;;;;;;3.47;100.00;97074.69;5112867;28;20479;-74
2021/12/28 06:20:22;;;;;;;48.92;24.48;;;;;;;3.53;100.00;97081.72;5112802;28;20050;-76
2021/12/28 06:22:48;;;;;;;53.35;24.90;;;;;;;3.49;100.00;97088.72;5113221;28;20067;-75
2021/12/28 06:25:13;;;;;;;51.42;25.10;;;;;;;3.58;100.00;97079.00;5111913;28;20489;-74
2021/12/28 06:27:39;;;;;;;56.88;27.40;;;;;;;3.56;100.00;97087.38;5111921;28;20435;-75
2021/12/28 06:30:05;;;;;;;52.72;26.10;;;;;;;3.50;100.00;97085.78;5113259;28;20058;-76
2021/12/28 06:32:31;;;;;;;52.40;25.10;;;;;;;3.53;100.00;97084.41;5113390;28;20065;-75
2021/12/28 06:34:56;;;;;;;48.33;24.55;;;;;;;3.57;100.00;97099.81;5113085;28;20031;-75
2021/12/28 06:37:22;;;;;;;55.08;24.77;;;;;;;3.46;100.00;97087.38;5113175;28;20024;-75
2021/12/28 06:39:47;;;;;;;52.40;24.83;;;;;;;3.47;100.00;97086.31;5113262;28;20076;-74
2021/12/28 06:42:13;;;;;;;51.33;25.23;;;;;;;3.40;100.00;97095.78;5113156;28;20432;-78
2021/12/28 06:44:42;;;;;;;56.53;25.90;;;;;;;3.45;100.00;97106.56;5115855;28;20031;-75
2021/12/28 06:47:08;;;;;;;49.22;24.77;;;;;;;3.39;100.00;97104.94;5119863;28;20053;-77
2021/12/28 06:49:33;;;;;;;53.10;24.98;;;;;;;3.38;100.00;97114.16;5118706;28;20020;-78
2021/12/28 06:51:59;;;;;;;52.65;26.55;;;;;;;3.31;100.00;97119.00;5114393;28;20100;-75
2021/12/28 06:54:24;;;;;;;57.50;27.40;;;;;;;3.46;100.00;97113.59;5111989;28;20456;-75
2021/12/28 06:56:49;;;;;;;44.75;23.85;;;;;;;3.52;100.00;97131.44;5114082;28;20083;-74
2021/12/28 06:59:15;;;;;;;49.08;23.85;;;;;;;4.03;100.00;97119.50;5112991;28;20490;-74
2021/12/28 07:01:40;;;;;;;49.80;24.20;;;;;;;3.86;100.00;97118.97;5112889;28;20563;-75
2021/12/28 07:04:05;;;;;;;54.92;27.80;;;;;;;4.09;100.00;97131.09;5112678;28;20069;-76
2021/12/28 07:06:31;;;;;;;52.47;25.38;;;;;;;3.83;100.00;97116.00;5112767;28;20027;-74
2021/12/28 07:08:56;;;;;;;47.83;24.23;;;;;;;3.65;100.00;97136.31;5112745;28;20023;-77
2021/12/28 07:11:22;;;;;;;52.65;25.85;;;;;;;3.52;100.00;97123.31;5112645;28;20024;-75
2021/12/28 07:13:48;;;;;;;45.40;23.25;;;;;;;3.45;100.00;97130.88;5112962;28;20623;-75
2021/12/28 07:16:13;;;;;;;50.88;23.63;;;;;;;3.44;100.00;97126.59;5112787;28;20042;-75
2021/12/28 07:18:39;;;;;;;50.13;22.95;;;;;;;3.44;100.00;97130.09;5112780;28;20042;-74
2021/12/28 07:21:05;;;;;;;49.45;23.88;;;;;;;3.43;100.00;97130.34;5112890;28;20004;-76
2021/12/28 07:23:33;;;;;;;48.40;23.75;;;;;;;3.49;100.00;97132.78;5110911;28;20490;-74
2021/12/28 07:25:58;;;;;;;46.28;23.23;;;;;;;3.49;100.00;97137.38;5112271;28;20120;-75
2021/12/28 07:28:25;;;;;;;44.00;22.40;;;;;;;3.44;100.00;97132.00;5112313;28;20053;-74
2021/12/28 07:30:51;;;;;;;43.63;22.55;;;;;;;3.53;100.00;97149.28;5111304;28;20034;-75
2021/12/28 07:33:17;;;;;;;47.22;23.92;;;;;;;3.57;100.00;97147.69;5112508;28;20079;-74
2021/12/28 07:35:43;;;;;;;43.08;21.75;;;;;;;3.62;100.00;97147.66;5112206;28;20024;-77
2021/12/28 07:38:08;;;;;;;47.55;23.10;;;;;;;3.33;100.00;97097.91;5112247;28;20023;-74
2021/12/28 07:40:34;;;;;;;43.67;21.55;;;;;;;3.64;100.00;97148.19;5112420;27;20024;-75
2021/12/28 07:43:00;;;;;;;41.65;22.88;;;;;;;3.67;100.00;97142.25;5112745;28;20032;-75
2021/12/28 07:45:25;;;;;;;43.45;22.83;;;;;;;3.72;100.00;97139.56;5113027;28;20550;-75
2021/12/28 07:47:51;;;;;;;39.65;19.95;;;;;;;3.83;100.00;97146.56;5112863;28;20024;-73
2021/12/28 07:50:19;;;;;;;45.85;22.38;;;;;;;3.85;100.00;97159.81;5113208;28;20029;-76
2021/12/28 07:52:46;;;;;;;44.47;19.98;;;;;;;3.92;100.00;97147.63;5114035;28;20028;-77
2021/12/28 07:55:12;;;;;;;45.78;24.60;;;;;;;4.03;100.00;97146.53;5113161;28;20096;-77
2021/12/28 07:57:38;;;;;;;44.38;22.90;;;;;;;3.90;100.00;97144.41;5113667;28;20024;-87
2021/12/28 08:00:06;;;;;;;40.90;22.02;;;;;;;3.94;100.00;97145.47;5116104;28;20031;-82
2021/12/28 08:02:32;;;;;;;43.70;20.42;;;;;;;4.03;100.00;97140.31;5099756;28;20032;-76
2021/12/28 08:04:57;;;;;;;41.92;20.98;;;;;;;4.13;100.00;97138.41;5109878;28;20039;-75
2021/12/28 08:07:23;;;;;;;43.08;21.60;;;;;;;4.19;100.00;97137.31;5108058;28;20032;-78
2021/12/28 08:09:48;;;;;;;36.70;21.27;;;;;;;4.21;100.00;97135.13;5105914;28;21015;-75
2021/12/28 08:12:13;;;;;;;37.30;20.92;;;;;;;4.17;100.00;97135.94;5111520;28;20023;-75
2021/12/28 08:14:39;;;;;;;43.05;22.75;;;;;;;4.17;100.00;97134.06;5111743;28;20055;-75
2021/12/28 08:17:04;;;;;;;44.78;22.40;;;;;;;4.10;100.00;97133.53;5111240;28;20028;-75
2021/12/28 08:19:30;;;;;;;42.38;20.75;;;;;;;4.19;100.00;97134.59;5111330;28;20061;-76
2021/12/28 08:21:55;;;;;;;37.83;20.85;;;;;;;4.48;100.00;97132.06;5096542;28;20429;-75
2021/12/28 08:24:20;;;;;;;45.45;24.75;;;;;;;4.76;100.00;97134.09;5091047;28;20024;-76
2021/12/28 08:26:46;;;;;;;46.95;25.50;;;;;;;4.79;100.00;97132.75;5090985;28;20032;-80
2021/12/28 08:29:11;;;;;;;40.53;21.08;;;;;;;4.83;100.00;97134.63;5094266;28;20052;-73
2021/12/28 08:31:41;;;;;;;38.83;20.63;;;;;;;5.01;100.00;97138.56;5111649;28;20027;-76
2021/12/28 08:34:06;;;;;;;39.55;22.85;;;;;;;5.14;100.00;97137.97;5075880;28;20039;-78
2021/12/28 08:36:32;;;;;;;37.25;21.15;;;;;;;5.21;100.00;97132.22;5104173;28;20376;-75
2021/12/28 08:38:57;;;;;;;37.33;19.85;;;;;;;5.14;100.00;97134.44;5103114;28;20028;-76
2021/12/28 08:41:23;;;;;;;36.85;20.30;;;;;;;5.09;100.00;97148.03;5113826;28;20031;-76
2021/12/28 08:43:48;;;;;;;39.28;20.77;;;;;;;5.20;100.00;97144.97;5111730;28;20026;-76
2021/12/28 08:46:14;;;;;;;35.17;18.85;;;;;;;5.27;100.00;97137.34;5113647;28;20019;-81
2021/12/28 08:48:41;;;;;;;37.65;19.95;;;;;;;5.21;100.00;97132.22;5111139;28;20036;-74
2021/12/28 08:51:07;;;;;;;36.25;18.95;;;;;;;5.32;100.00;97134.59;5111575;28;20024;-78
2021/12/28 08:53:33;;;;;;;38.55;19.98;;;;;;;5.90;100.00;97145.53;5112250;28;20040;-79
2021/12/28 08:55:58;;;;;;;32.10;19.42;;;;;;;6.64;100.00;97141.53;5112957;28;20045;-74
2021/12/28 08:58:24;;;;;;;34.85;19.77;;;;;;;6.83;100.00;97139.63;5102260;28;20028;-77
2021/12/28 09:00:49;;;;;;;38.97;21.15;;;;;;;6.66;100.00;97140.13;5119878;28;20103;-77
2021/12/28 09:03:15;;;;;;;39.88;22.60;;;;;;;6.32;100.00;97153.84;5116483;28;20043;-76
2021/12/28 09:05:40;;;;;;;42.65;21.80;;;;;;;5.92;100.00;97151.50;5106802;28;20032;-74
2021/12/28 09:08:09;;;;;;;42.72;24.55;;;;;;;5.64;100.00;97142.19;5106805;28;20026;-77
2021/12/28 09:10:35;;;;;;;46.60;24.20;;;;;;;5.57;100.00;97144.44;5107466;28;20028;-75
2021/12/28 09:13:02;;;;;;;42.25;23.95;;;;;;;5.38;100.00;97151.66;5108733;28;20484;-75
2021/12/28 09:15:27;;;;;;;43.97;24.45;;;;;;;5.33;100.00;97147.06;5106507;28;20019;-77
2021/12/28 09:17:53;;;;;;;43.08;23.10;;;;;;;5.45;100.00;97154.03;5107788;28;20012;-77
2021/12/28 09:20:21;;;;;;;41.80;22.08;;;;;;;5.30;100.00;97144.09;5103566;28;20032;-77
2021/12/28 09:22:47;;;;;;;46.47;25.17;;;;;;;5.21;100.00;97146.59;5107202;28;20023;-76
2021/12/28 09:25:15;;;;;;;41.75;23.55;;;;;;;5.02;100.00;97142.91;5104455;28;20089;-76
2021/12/28 09:27:41;;;;;;;47.55;24.83;;;;;;;5.05;100.00;97145.06;5105187;28;20023;-75
2021/12/28 09:30:08;;;;;;;46.92;24.17;;;;;;;5.25;100.00;97142.25;5101997;28;20016;-78
2021/12/28 09:32:33;;;;;;;40.03;23.55;;;;;;;5.32;100.00;97141.94;5107399;28;20103;-74
2021/12/28 09:34:59;;;;;;;44.55;23.83;;;;;;;5.46;100.00;97134.75;5103793;28;20227;-76
2021/12/28 09:37:24;;;;;;;41.70;22.42;;;;;;;5.42;100.00;97130.19;5106890;28;20077;-80
2021/12/28 09:39:50;;;;;;;45.65;24.83;;;;;;;5.55;100.00;97130.34;5107312;28;20035;-80
2021/12/28 09:42:16;;;;;;;40.72;22.10;;;;;;;5.73;100.00;97131.56;5108627;28;20015;-75
2021/12/28 09:44:42;;;;;;;40.28;23.02;;;;;;;5.86;100.00;97139.88;5106266;28;20027;-76
2021/12/28 09:47:09;;;;;;;44.88;23.20;;;;;;;5.88;100.00;97131.47;5105441;28;20020;-77
2021/12/28 09:49:35;;;;;;;41.25;23.27;;;;;;;5.70;100.00;97130.22;5106286;28;20616;-74
2021/12/28 09:52:03;;;;;;;41.03;22.83;;;;;;;5.86;100.00;97128.22;5109622;28;20019;-76
2021/12/28 09:54:29;;;;;;;44.78;25.83;;;;;;;5.75;100.00;97123.94;5109755;28;20107;-78
2021/12/28 09:56:56;;;;;;;40.83;23.17;;;;;;;5.77;100.00;97122.56;5111956;28;20039;-75
2021/12/28 09:59:24;;;;;;;47.88;24.88;;;;;;;5.81;100.00;97106.53;5110419;28;20028;-74
2021/12/28 10:01:50;;;;;;;42.83;24.45;;;;;;;5.78;100.00;97112.53;5109961;28;20053;-76
2021/12/28 10:04:16;;;;;;;45.40;25.30;;;;;;;6.05;100.00;97107.41;5104211;28;20024;-75
2021/12/28 10:06:43;;;;;;;44.72;24.10;;;;;;;6.07;100.00;97105.22;5106758;28;20422;-75
2021/12/28 10:09:17;;;;;;;42.25;23.98;;;;;;;6.15;100.00;97107.31;5105409;28;20049;-75
2021/12/28 10:11:53;;;;;;;44.83;24.08;;;;;;;6.36;100.00;97105.16;5104448;28;20027;-74
2021/12/28 10:14:28;;;;;;;46.53;24.38;;;;;;;6.69;100.00;97103.41;5105795;28;20023;-75
2021/12/28 10:17:00;;;;;;;43.03;23.15;;;;;;;6.51;100.00;97105.00;5106567;28;20357;-76
2021/12/28 10:19:36;;;;;;;41.05;25.20;;;;;;;6.60;100.00;97103.25;5108905;28;20383;-76
2021/12/28 10:22:42;;;;;;;41.72;23.58;;;;;;;6.78;100.00;97101.66;5107481;28;20034;-76
2021/12/28 10:25:36;;;;;;;40.07;22.83;;;;;;;7.07;100.00;97098.81;5104298;28;20468;-76
2021/12/28 10:28:05;;;;;;;39.65;22.63;;;;;;;7.00;100.00;97096.47;5103307;28;20036;-77
2021/12/28 10:30:32;;;;;;;41.25;23.08;;;;;;;7.22;100.00;97099.41;5107910;28;20019;-75
2021/12/28 10:33:07;;;;;;;39.17;21.63;;;;;;;7.09;100.00;97083.00;5106894;28;20026;-83
2021/12/28 10:35:45;;;;;;;38.58;22.00;;;;;;;6.96;100.00;97090.81;5105343;28;20034;-79
2021/12/28 10:38:14;;;;;;;37.00;21.23;;;;;;;7.48;100.00;97097.09;5108952;28;20038;-77
2021/12/28 10:40:47;;;;;;;39.75;21.85;;;;;;;7.57;100.00;97089.88;5106789;28;20492;-80
2021/12/28 10:43:18;;;;;;;40.15;23.00;;;;;;;7.52;100.00;97085.31;5103924;28;20034;-75
2021/12/28 10:45:47;;;;;;;39.10;21.80;;;;;;;7.54;100.00;97080.41;5106156;28;20042;-77
2021/12/28 10:48:12;;;;;;;37.20;21.63;;;;;;;7.35;100.00;97084.25;5102905;28;20032;-75
2021/12/28 10:50:46;;;;;;;37.40;22.83;;;;;;;7.33;100.00;97083.75;5103769;28;20476;-79
2021/12/28 10:53:32;;;;;;;45.80;22.58;;;;;;;7.43;100.00;97078.13;5106962;28;20480;-75
2021/12/28 10:55:59;;;;;;;;;;;;;;;7.36;100.00;97075.00;5111765;28;20032;-81
2021/12/28 10:58:39;;;;;;;37.92;22.63;;;;;;;7.25;100.00;97066.19;5113208;28;20382;-79
2021/12/28 11:01:17;;;;;;;41.97;22.75;;;;;;;7.27;100.00;97058.53;5102853;28;20106;-87
2021/12/28 11:03:51;;;;;;;37.58;21.92;;;;;;;7.32;100.00;97049.50;5101224;28;20032;-77
2021/12/28 11:06:16;;;;;;;39.05;22.95;;;;;;;7.29;100.00;97048.19;5109563;28;20035;-78
2021/12/28 11:08:44;;;;;;;39.70;21.20;;;;;;;7.04;100.00;97043.13;5111348;28;20027;-82
2021/12/28 11:11:14;;;;;;;42.60;23.35;;;;;;;7.36;100.00;97050.53;5113153;28;20028;-79
2021/12/28 11:13:39;;;;;;;41.22;23.00;;;;;;;7.26;100.00;97046.06;5114265;28;20031;-79
2021/12/28 11:16:11;;;;;;;38.90;23.83;;;;;;;7.24;100.00;97037.34;5103450;28;20112;-84
2021/12/28 11:18:41;;;;;;;45.22;24.92;;;;;;;7.03;100.00;97030.63;5109834;28;20016;-84